createdAt,value
2023-01-29T00:02:30.241Z,5.88
2023-01-29T00:07:31.658Z,5.80
2023-01-29T00:12:33.279Z,6.25
2023-01-29T00:17:34.739Z,6.03
2023-01-29T00:22:36.192Z,6.53
2023-01-29T00:27:37.628Z,6.90
2023-01-29T00:32:39.051Z,6.70
2023-01-29T00:37:40.464Z,7.35
2023-01-29T00:42:41.878Z,7.53
2023-01-29T00:47:43.298Z,6.82
2023-01-29T00:52:44.740Z,7.20
2023-01-29T00:57:46.202Z,6.97
2023-01-29T01:02:47.671Z,7.15
2023-01-29T01:07:49.366Z,5.90
2023-01-29T01:12:50.828Z,5.85
2023-01-29T01:17:52.252Z,5.50
2023-01-29T01:22:53.664Z,5.25
2023-01-29T01:27:55.101Z,5.13
2023-01-29T01:32:56.574Z,5.35
2023-01-29T01:37:58.006Z,5.00
2023-01-29T01:42:59.448Z,5.07
2023-01-29T01:48:00.930Z,4.40
2023-01-29T01:53:02.369Z,4.35
2023-01-29T01:58:03.829Z,4.70
2023-01-29T02:03:05.270Z,4.13
2023-01-29T02:08:06.789Z,5.28
2023-01-29T02:13:08.409Z,4.93
2023-01-29T02:18:09.840Z,5.43
2023-01-29T02:23:11.301Z,5.13
2023-01-29T02:28:12.806Z,6.35
2023-01-29T02:33:14.272Z,5.85
2023-01-29T02:38:15.931Z,5.72
2023-01-29T02:43:17.426Z,6.15
2023-01-29T02:48:18.864Z,6.30
2023-01-29T02:53:20.304Z,6.22
2023-01-29T02:58:21.766Z,5.43
2023-01-29T03:03:23.228Z,5.35
2023-01-29T03:08:24.700Z,5.25
2023-01-29T03:13:26.173Z,5.85
2023-01-29T03:18:27.615Z,5.88
2023-01-29T03:23:29.092Z,4.65
2023-01-29T03:28:30.534Z,4.55
2023-01-29T03:33:31.992Z,4.70
2023-01-29T03:38:33.465Z,4.80
2023-01-29T03:43:34.954Z,4.45
2023-01-29T03:48:36.428Z,4.28
2023-01-29T03:53:37.977Z,4.88
2023-01-29T03:58:39.498Z,4.63
2023-01-29T04:03:40.935Z,5.38
2023-01-29T04:08:42.405Z,4.93
2023-01-29T04:13:43.844Z,4.70
2023-01-29T04:18:45.262Z,5.03
2023-01-29T04:23:46.688Z,4.22
2023-01-29T04:28:48.275Z,4.93
2023-01-29T04:33:49.704Z,5.22
2023-01-29T04:38:51.161Z,5.93
2023-01-29T04:43:52.646Z,5.00
2023-01-29T04:48:54.075Z,5.30
2023-01-29T04:53:55.492Z,4.85
2023-01-29T04:58:56.923Z,5.85
2023-01-29T05:03:58.518Z,5.75
2023-01-29T05:08:59.988Z,5.88
2023-01-29T05:14:01.468Z,5.90
2023-01-29T05:19:03.149Z,5.38
2023-01-29T05:24:04.643Z,5.70
2023-01-29T05:29:06.089Z,5.88
2023-01-29T05:34:07.521Z,5.10
2023-01-29T05:39:09.075Z,5.30
2023-01-29T05:44:10.526Z,5.32
2023-01-29T05:49:11.961Z,4.85
2023-01-29T05:54:13.408Z,6.05
2023-01-29T05:59:14.829Z,5.47
2023-01-29T06:04:16.251Z,5.50
2023-01-29T06:09:17.721Z,4.88
2023-01-29T06:14:19.199Z,5.13
2023-01-29T06:19:20.654Z,5.75
2023-01-29T06:24:22.140Z,5.68
2023-01-29T06:29:23.614Z,6.40
2023-01-29T06:34:25.082Z,5.80
2023-01-29T06:39:26.579Z,5.90
2023-01-29T06:44:28.204Z,6.18
2023-01-29T06:49:29.664Z,5.85
2023-01-29T06:54:31.102Z,5.65
2023-01-29T06:59:32.507Z,5.13
2023-01-29T07:04:33.927Z,6.25
2023-01-29T07:09:35.355Z,5.60
2023-01-29T07:14:36.811Z,5.80
2023-01-29T07:19:38.242Z,5.47
2023-01-29T07:24:39.697Z,5.35
2023-01-29T07:29:41.161Z,5.32
2023-01-29T07:34:42.604Z,5.07
2023-01-29T07:39:44.068Z,5.35
2023-01-29T07:44:45.506Z,5.30
2023-01-29T07:49:46.930Z,6.43
2023-01-29T07:54:48.388Z,5.50
2023-01-29T07:59:49.855Z,4.80
2023-01-29T08:04:51.306Z,5.72
2023-01-29T08:09:52.723Z,6.80
2023-01-29T08:14:54.181Z,5.30
2023-01-29T08:19:55.677Z,5.85
2023-01-29T08:25:06.393Z,5.55
2023-01-29T08:30:09.602Z,5.70
2023-01-29T08:35:11.078Z,6.50
2023-01-29T08:40:12.507Z,5.65
2023-01-29T08:45:13.968Z,6.22
2023-01-29T08:50:15.757Z,6.40
2023-01-29T08:55:17.752Z,6.35
2023-01-29T09:00:19.538Z,5.70
2023-01-29T09:05:21.043Z,6.03
2023-01-29T09:10:22.521Z,6.82
2023-01-29T09:15:24.005Z,6.47
2023-01-29T09:20:25.483Z,6.88
2023-01-29T09:25:26.940Z,6.85
2023-01-29T09:30:28.368Z,5.85
2023-01-29T09:35:29.842Z,7.22
2023-01-29T09:40:31.289Z,6.35
2023-01-29T09:45:32.709Z,6.10
2023-01-29T09:50:34.166Z,6.55
2023-01-29T09:55:35.658Z,6.25
2023-01-29T10:00:37.191Z,6.20
2023-01-29T10:05:38.657Z,7.22
2023-01-29T10:10:40.140Z,7.28
2023-01-29T10:15:41.571Z,7.28
2023-01-29T10:20:43.001Z,9.70
2023-01-29T10:25:44.452Z,15.05
2023-01-29T10:30:45.963Z,6.93
2023-01-29T10:35:47.428Z,7.10
2023-01-29T10:40:48.867Z,6.88
2023-01-29T10:45:50.321Z,6.28
2023-01-29T10:50:51.813Z,6.72
2023-01-29T10:55:53.253Z,6.28
2023-01-29T11:00:54.710Z,6.13
2023-01-29T11:05:56.173Z,7.45
2023-01-29T11:10:57.652Z,5.22
2023-01-29T11:15:59.077Z,6.00
2023-01-29T11:21:00.541Z,6.75
2023-01-29T11:26:01.971Z,6.78
2023-01-29T11:31:03.497Z,5.93
2023-01-29T11:36:05.011Z,5.60
2023-01-29T11:41:06.451Z,6.22
2023-01-29T11:46:07.975Z,5.63
2023-01-29T11:51:09.421Z,6.13
2023-01-29T11:56:10.853Z,5.30
2023-01-29T12:01:12.314Z,4.63
2023-01-29T12:06:13.852Z,5.07
2023-01-29T12:11:15.373Z,4.53
2023-01-29T12:16:16.842Z,5.18
2023-01-29T12:21:18.297Z,4.63
2023-01-29T12:26:19.869Z,4.35
2023-01-29T12:31:21.363Z,3.97
2023-01-29T12:36:22.845Z,4.45
2023-01-29T12:41:24.296Z,3.78
2023-01-29T12:46:25.781Z,3.17
2023-01-29T12:51:27.259Z,3.72
2023-01-29T12:56:28.680Z,4.47
2023-01-29T13:01:30.118Z,4.35
2023-01-29T13:06:31.600Z,5.25
2023-01-29T13:11:33.035Z,5.28
2023-01-29T13:16:34.558Z,5.13
2023-01-29T13:21:36.057Z,5.50
2023-01-29T13:26:37.559Z,5.28
2023-01-29T13:31:39.177Z,6.60
2023-01-29T13:36:40.647Z,7.00
2023-01-29T13:41:42.108Z,7.00
2023-01-29T13:46:43.577Z,6.90
2023-01-29T13:51:45.132Z,6.55
2023-01-29T13:56:46.568Z,5.88
2023-01-29T14:01:48.054Z,6.20
2023-01-29T14:06:49.563Z,6.18
2023-01-29T14:11:51.015Z,6.38
2023-01-29T14:16:52.488Z,7.03
2023-01-29T14:21:53.923Z,6.90
2023-01-29T14:26:55.403Z,5.45
2023-01-29T14:31:56.879Z,7.43
2023-01-29T14:36:58.360Z,7.90
2023-01-29T14:41:59.863Z,8.15
2023-01-29T14:47:01.323Z,7.38
2023-01-29T14:52:02.786Z,7.47
2023-01-29T14:57:04.276Z,8.77
2023-01-29T15:02:05.763Z,8.75
2023-01-29T15:07:07.203Z,8.57
2023-01-29T15:12:08.639Z,9.05
2023-01-29T15:17:10.073Z,9.65
2023-01-29T15:22:11.522Z,9.52
2023-01-29T15:27:13.094Z,9.77
2023-01-29T15:32:14.611Z,7.22
2023-01-29T15:37:16.060Z,8.35
2023-01-29T15:42:17.491Z,6.93
2023-01-29T15:47:18.977Z,6.80
2023-01-29T15:52:20.485Z,6.32
2023-01-29T15:57:21.916Z,6.63
2023-01-29T16:02:24.491Z,7.10
2023-01-29T16:07:25.964Z,7.35
2023-01-29T16:12:27.428Z,8.05
2023-01-29T16:17:28.936Z,8.63
2023-01-29T16:22:30.375Z,7.45
2023-01-29T16:27:31.943Z,7.78
2023-01-29T16:32:33.372Z,8.77
2023-01-29T16:37:34.853Z,8.27
2023-01-29T16:42:36.288Z,9.15
2023-01-29T16:47:37.718Z,8.60
2023-01-29T16:52:39.215Z,8.80
2023-01-29T16:57:40.650Z,8.43
2023-01-29T17:02:42.148Z,8.20
2023-01-29T17:07:43.828Z,8.38
2023-01-29T17:12:45.292Z,8.77
2023-01-29T17:17:46.732Z,8.10
2023-01-29T17:22:48.231Z,7.35
2023-01-29T17:27:49.726Z,7.25
2023-01-29T17:32:51.234Z,7.75
2023-01-29T17:37:55.072Z,6.78
2023-01-29T17:42:56.694Z,8.35
2023-01-29T17:47:58.355Z,8.88
2023-01-29T17:52:59.799Z,9.35
2023-01-29T17:58:01.222Z,11.82
2023-01-29T18:03:02.641Z,9.05
2023-01-29T18:08:04.063Z,9.75
2023-01-29T18:13:05.675Z,8.85
2023-01-29T18:18:07.130Z,8.35
2023-01-29T18:23:08.577Z,11.10
2023-01-29T18:28:10.183Z,11.38
2023-01-29T18:33:11.858Z,11.52
2023-01-29T18:38:13.491Z,12.13
2023-01-29T18:43:15.247Z,9.90
2023-01-29T18:48:16.915Z,6.97
2023-01-29T18:53:18.567Z,10.15
2023-01-29T18:58:27.239Z,12.85
2023-01-29T19:03:37.912Z,12.23
2023-01-29T19:08:39.360Z,12.10
2023-01-29T19:13:40.974Z,12.55
2023-01-29T19:18:42.668Z,12.00
2023-01-29T19:23:44.141Z,10.50
2023-01-29T19:28:45.581Z,11.43
2023-01-29T19:33:47.036Z,12.18
2023-01-29T19:38:48.469Z,13.20
2023-01-29T19:43:50.001Z,11.10
2023-01-29T19:48:51.520Z,12.48
2023-01-29T19:53:52.959Z,11.57
2023-01-29T19:58:54.565Z,11.45
2023-01-29T20:03:56.217Z,12.20
2023-01-29T20:08:57.678Z,12.60
2023-01-29T20:13:59.111Z,12.93
2023-01-29T20:19:14.676Z,12.35
2023-01-29T20:24:16.580Z,15.32
2023-01-29T20:29:18.026Z,16.88
2023-01-29T20:34:19.650Z,15.48
2023-01-29T20:39:21.313Z,15.15
2023-01-29T20:44:22.966Z,14.20
2023-01-29T20:49:24.710Z,13.10
2023-01-29T20:54:26.705Z,12.55
2023-01-29T20:59:28.448Z,12.90
2023-01-29T21:04:29.907Z,11.23
2023-01-29T21:09:31.386Z,13.07
2023-01-29T21:14:32.834Z,13.48
2023-01-29T21:19:34.333Z,11.95
2023-01-29T21:24:35.768Z,13.20
2023-01-29T21:29:37.870Z,12.93
2023-01-29T21:34:39.423Z,12.25
2023-01-29T21:39:40.946Z,11.63
2023-01-29T21:44:42.444Z,10.00
2023-01-29T21:49:43.880Z,11.55
2023-01-29T21:54:45.341Z,11.13
2023-01-29T21:59:52.818Z,10.95
2023-01-29T22:04:55.688Z,10.25
2023-01-29T22:09:58.351Z,10.85
2023-01-29T22:14:59.897Z,10.15
2023-01-29T22:20:01.412Z,9.88
2023-01-29T22:25:02.852Z,9.80
2023-01-29T22:30:04.285Z,9.50
2023-01-29T22:35:05.709Z,9.55
2023-01-29T22:40:07.124Z,9.73
2023-01-29T22:45:08.596Z,9.30
2023-01-29T22:50:10.037Z,9.00
2023-01-29T22:55:11.468Z,9.63
2023-01-29T23:00:12.956Z,9.23
2023-01-29T23:05:14.421Z,7.50
2023-01-29T23:10:16.224Z,9.27
2023-01-29T23:15:17.918Z,9.65
2023-01-29T23:20:19.627Z,9.27
2023-01-29T23:25:21.141Z,9.13
2023-01-29T23:30:22.612Z,8.80
2023-01-29T23:35:24.179Z,8.70
2023-01-29T23:40:25.648Z,10.48
2023-01-29T23:45:27.066Z,10.95
2023-01-29T23:50:28.478Z,11.82
2023-01-29T23:55:29.894Z,11.18
